createdAt,value
2023-04-05T00:02:06.770Z,67.70
2023-04-05T00:04:33.444Z,68.90
2023-04-05T00:07:00.110Z,68.60
2023-04-05T00:09:26.647Z,68.20
2023-04-05T00:11:53.201Z,68.80
2023-04-05T00:14:19.747Z,68.50
2023-04-05T00:16:46.438Z,68.10
2023-04-05T00:19:13.150Z,69.80
2023-04-05T00:21:39.699Z,70.80
2023-04-05T00:24:06.277Z,70.00
2023-04-05T00:26:32.809Z,70.20
2023-04-05T00:28:59.423Z,70.60
2023-04-05T00:31:26.040Z,69.80
2023-04-05T00:33:52.664Z,69.80
2023-04-05T00:36:19.266Z,69.90
2023-04-05T00:38:45.878Z,70.50
2023-04-05T00:41:12.457Z,69.80
2023-04-05T00:43:39.165Z,70.20
2023-04-05T00:46:05.759Z,71.40
2023-04-05T00:48:32.342Z,70.80
2023-04-05T00:50:58.929Z,71.50
2023-04-05T00:53:25.788Z,70.90
2023-04-05T00:55:52.357Z,69.40
2023-04-05T00:58:18.966Z,70.10
2023-04-05T01:00:45.551Z,71.20
2023-04-05T01:03:12.107Z,70.50
2023-04-05T01:05:38.650Z,71.20
2023-04-05T01:08:05.200Z,72.20
2023-04-05T01:10:31.756Z,70.90
2023-04-05T01:12:58.351Z,71.60
2023-04-05T01:15:24.923Z,70.20
2023-04-05T01:17:51.626Z,69.80
2023-04-05T01:20:18.277Z,69.40
2023-04-05T01:22:44.841Z,69.90
2023-04-05T01:25:11.392Z,69.60
2023-04-05T01:27:37.980Z,70.50
2023-04-05T01:30:04.587Z,70.50
2023-04-05T01:32:31.316Z,70.30
2023-04-05T01:34:57.916Z,71.30
2023-04-05T01:37:24.504Z,70.60
2023-04-05T01:39:51.085Z,70.30
2023-04-05T01:42:17.622Z,71.00
2023-04-05T01:44:44.262Z,70.30
2023-04-05T01:47:10.926Z,71.50
2023-04-05T01:49:37.489Z,74.90
2023-04-05T01:52:04.043Z,75.30
2023-04-05T01:54:30.639Z,75.10
2023-04-05T01:56:57.183Z,73.90
2023-04-05T01:59:23.951Z,73.10
2023-04-05T02:01:50.890Z,73.90
2023-04-05T02:04:17.516Z,74.50
2023-04-05T02:06:44.265Z,73.10
2023-04-05T02:09:10.821Z,73.10
2023-04-05T02:11:37.381Z,72.60
2023-04-05T02:14:03.928Z,73.90
2023-04-05T02:16:30.610Z,73.80
2023-04-05T02:18:57.292Z,73.70
2023-04-05T02:21:23.957Z,73.60
2023-04-05T02:23:50.525Z,72.30
2023-04-05T02:26:17.205Z,72.30
2023-04-05T02:28:43.784Z,72.10
2023-04-05T02:31:10.482Z,72.00
2023-04-05T02:33:37.064Z,72.20
2023-04-05T02:36:03.659Z,72.70
2023-04-05T02:38:31.371Z,73.00
2023-04-05T02:40:57.932Z,75.40
2023-04-05T02:43:24.694Z,74.30
2023-04-05T02:45:51.693Z,74.30
2023-04-05T02:48:18.270Z,72.90
2023-04-05T02:50:44.849Z,73.60
2023-04-05T02:53:17.333Z,73.90
2023-04-05T02:55:43.885Z,73.80
2023-04-05T02:58:10.473Z,74.10
2023-04-05T03:00:37.035Z,74.30
2023-04-05T03:03:03.782Z,75.90
2023-04-05T03:05:30.488Z,76.40
2023-04-05T03:07:57.087Z,75.90
2023-04-05T03:10:23.670Z,75.70
2023-04-05T03:12:50.228Z,74.90
2023-04-05T03:15:16.877Z,74.10
2023-04-05T03:17:43.522Z,74.20
2023-04-05T03:20:10.527Z,76.00
2023-04-05T03:22:37.074Z,77.00
2023-04-05T03:25:03.852Z,77.50
2023-04-05T03:27:30.501Z,76.10
2023-04-05T03:29:59.120Z,75.00
2023-04-05T03:32:26.154Z,74.70
2023-04-05T03:34:52.820Z,75.50
2023-04-05T03:37:19.396Z,74.90
2023-04-05T03:39:45.958Z,74.30
2023-04-05T03:42:12.497Z,74.80
2023-04-05T03:44:39.048Z,76.30
2023-04-05T03:47:05.596Z,74.90
2023-04-05T03:49:32.141Z,76.30
2023-04-05T03:51:59.055Z,76.20
2023-04-05T03:54:25.607Z,75.00
2023-04-05T03:56:52.187Z,76.20
2023-04-05T03:59:18.835Z,77.10
2023-04-05T04:01:45.509Z,76.80
2023-04-05T04:04:12.106Z,75.40
2023-04-05T04:06:38.727Z,75.70
2023-04-05T04:09:05.281Z,74.80
2023-04-05T04:11:31.855Z,75.50
2023-04-05T04:13:58.444Z,76.30
2023-04-05T04:16:26.763Z,75.30
2023-04-05T04:18:55.249Z,76.30
2023-04-05T04:21:21.855Z,79.20
2023-04-05T04:23:48.385Z,79.10
2023-04-05T04:26:14.951Z,78.40
2023-04-05T04:28:41.506Z,78.70
2023-04-05T04:31:08.092Z,78.70
2023-04-05T04:33:34.658Z,78.90
2023-04-05T04:36:01.226Z,78.20
2023-04-05T04:38:27.783Z,77.00
2023-04-05T04:40:54.321Z,77.80
2023-04-05T04:43:20.902Z,78.50
2023-04-05T04:45:47.510Z,78.60
2023-04-05T04:48:14.078Z,77.00
2023-04-05T04:50:40.668Z,77.00
2023-04-05T04:53:07.210Z,78.10
2023-04-05T04:55:33.879Z,77.40
2023-04-05T04:58:00.538Z,76.80
2023-04-05T05:00:27.165Z,76.20
2023-04-05T05:02:53.832Z,76.60
2023-04-05T05:05:20.429Z,78.10
2023-04-05T05:07:47.002Z,79.70
2023-04-05T05:10:13.574Z,79.00
2023-04-05T05:12:40.247Z,79.70
2023-04-05T05:15:06.814Z,79.90
2023-04-05T05:17:33.404Z,80.40
2023-04-05T05:19:59.981Z,79.50
2023-04-05T05:22:26.561Z,78.90
2023-04-05T05:24:53.121Z,78.60
2023-04-05T05:27:19.641Z,79.90
2023-04-05T05:29:46.244Z,79.20
2023-04-05T05:32:12.779Z,79.00
2023-04-05T05:34:40.276Z,78.40
2023-04-05T05:37:06.807Z,79.20
2023-04-05T05:39:33.360Z,78.40
2023-04-05T05:41:59.922Z,78.90
2023-04-05T05:44:26.480Z,77.60
2023-04-05T05:46:53.102Z,77.20
2023-04-05T05:49:19.681Z,76.60
2023-04-05T05:51:46.261Z,75.80
2023-04-05T05:54:12.871Z,75.60
2023-04-05T05:56:39.432Z,74.40
2023-04-05T05:59:05.982Z,74.50
2023-04-05T06:01:32.597Z,75.40
2023-04-05T06:03:59.302Z,76.10
2023-04-05T06:06:26.066Z,74.10
2023-04-05T06:08:52.606Z,73.70
2023-04-05T06:11:19.173Z,74.00
2023-04-05T06:13:45.752Z,73.60
2023-04-05T06:16:12.393Z,73.40
2023-04-05T06:18:38.968Z,73.00
2023-04-05T06:21:05.621Z,72.70
2023-04-05T06:23:32.190Z,72.20
2023-04-05T06:25:58.736Z,72.00
2023-04-05T06:28:26.320Z,71.60
2023-04-05T06:30:53.061Z,72.30
2023-04-05T06:33:19.616Z,72.60
2023-04-05T06:35:46.230Z,71.90
2023-04-05T06:38:12.850Z,71.70
2023-04-05T06:40:39.640Z,72.50
2023-04-05T06:43:06.408Z,72.50
2023-04-05T06:45:33.061Z,69.90
2023-04-05T06:47:59.673Z,70.30
2023-04-05T06:50:26.295Z,68.20
2023-04-05T06:52:52.908Z,69.80
2023-04-05T06:55:19.593Z,68.70
2023-04-05T06:57:46.191Z,68.70
2023-04-05T07:00:12.746Z,71.20
2023-04-05T07:02:39.359Z,71.80
2023-04-05T07:05:05.985Z,68.70
2023-04-05T07:07:32.670Z,68.70
2023-04-05T07:09:59.218Z,69.20
2023-04-05T07:12:25.797Z,68.30
2023-04-05T07:14:52.659Z,69.50
2023-04-05T07:17:19.313Z,69.50
2023-04-05T07:19:45.945Z,68.70
2023-04-05T07:22:12.505Z,68.50
2023-04-05T07:24:39.320Z,67.40
2023-04-05T07:27:05.990Z,67.20
2023-04-05T07:29:32.882Z,67.70
2023-04-05T07:31:59.732Z,67.20
2023-04-05T07:34:26.313Z,67.40
2023-04-05T07:36:52.887Z,67.70
2023-04-05T07:39:19.608Z,66.80
2023-04-05T07:41:46.192Z,68.00
2023-04-05T07:44:12.747Z,68.40
2023-04-05T07:46:39.419Z,67.70
2023-04-05T07:49:06.035Z,67.00
2023-04-05T07:51:32.599Z,66.30
2023-04-05T07:54:00.708Z,66.60
2023-04-05T07:56:28.476Z,66.80
2023-04-05T07:58:55.106Z,67.90
2023-04-05T08:01:21.740Z,66.60
2023-04-05T08:03:48.406Z,67.20
2023-04-05T08:06:15.055Z,66.30
2023-04-05T08:08:41.712Z,66.60
2023-04-05T08:11:08.269Z,67.00
2023-04-05T08:13:34.858Z,65.60
2023-04-05T08:16:01.438Z,66.00
2023-04-05T08:18:28.393Z,65.40
2023-04-05T08:20:55.062Z,65.30
2023-04-05T08:23:21.628Z,65.70
2023-04-05T08:25:48.217Z,64.90
2023-04-05T08:28:14.762Z,63.60
2023-04-05T08:30:41.635Z,64.70
2023-04-05T08:33:08.454Z,65.70
2023-04-05T08:35:35.129Z,65.10
2023-04-05T08:38:01.704Z,66.10
2023-04-05T08:40:28.254Z,63.90
2023-04-05T08:42:54.818Z,67.10
2023-04-05T08:45:21.382Z,65.20
2023-04-05T08:47:47.956Z,65.10
2023-04-05T08:50:14.535Z,63.80
2023-04-05T08:52:41.105Z,61.40
2023-04-05T08:55:07.711Z,62.40
2023-04-05T08:57:34.339Z,62.10
2023-04-05T09:00:00.884Z,63.00
2023-04-05T09:02:27.478Z,62.60
2023-04-05T09:04:54.070Z,62.20
2023-04-05T09:07:20.625Z,62.70
2023-04-05T09:09:47.221Z,61.90
2023-04-05T09:12:13.804Z,61.10
2023-04-05T09:14:40.377Z,59.70
2023-04-05T09:17:07.040Z,58.70
2023-04-05T09:19:33.823Z,59.40
2023-04-05T09:22:00.398Z,60.10
2023-04-05T09:24:26.962Z,58.50
2023-04-05T09:26:53.538Z,57.70
2023-04-05T09:29:20.079Z,57.80
2023-04-05T09:31:46.702Z,58.40
2023-04-05T09:34:13.340Z,58.60
2023-04-05T09:36:39.907Z,54.80
2023-04-05T09:39:06.498Z,58.00
2023-04-05T09:41:33.058Z,55.20
2023-04-05T09:43:59.625Z,55.40
2023-04-05T09:46:26.241Z,57.10
2023-04-05T09:48:52.855Z,56.40
2023-04-05T09:51:19.472Z,53.40
2023-04-05T09:53:46.045Z,55.20
2023-04-05T09:56:12.579Z,54.30
2023-04-05T09:58:39.519Z,55.40
2023-04-05T10:03:40.418Z,53.40
2023-04-05T10:06:07.037Z,54.90
2023-04-05T10:08:33.563Z,55.00
2023-04-05T10:11:00.130Z,53.40
2023-04-05T10:13:26.670Z,56.40
2023-04-05T10:15:53.311Z,52.90
2023-04-05T10:18:19.927Z,53.70
2023-04-05T10:20:46.536Z,52.00
2023-04-05T10:23:13.117Z,52.20
2023-04-05T10:25:39.705Z,49.70
2023-04-05T10:28:06.334Z,55.00
2023-04-05T10:30:32.895Z,55.40
2023-04-05T10:32:59.544Z,51.90
2023-04-05T10:35:26.130Z,51.10
2023-04-05T10:37:53.181Z,52.00
2023-04-05T10:40:19.748Z,52.50
2023-04-05T10:42:46.301Z,51.90
2023-04-05T10:45:12.913Z,53.80
2023-04-05T10:47:39.541Z,52.90
2023-04-05T10:50:06.251Z,50.20
2023-04-05T10:52:33.129Z,52.30
2023-04-05T10:54:59.753Z,51.20
2023-04-05T10:57:26.562Z,53.00
2023-04-05T10:59:53.355Z,50.70
2023-04-05T11:02:20.053Z,51.30
2023-04-05T11:04:46.780Z,50.90
2023-04-05T11:07:13.429Z,50.70
2023-04-05T11:09:39.971Z,52.00
2023-04-05T11:12:06.541Z,49.50
2023-04-05T11:14:33.152Z,53.20
2023-04-05T11:16:59.899Z,52.10
2023-04-05T11:19:26.601Z,51.30
2023-04-05T11:21:53.220Z,51.40
2023-04-05T11:24:19.820Z,49.60
2023-04-05T11:26:46.375Z,50.50
2023-04-05T11:29:12.940Z,52.10
2023-04-05T11:31:39.688Z,49.60
2023-04-05T11:34:06.304Z,49.10
2023-04-05T11:36:32.850Z,50.10
2023-04-05T11:38:59.444Z,48.50
2023-04-05T11:41:26.008Z,47.90
2023-04-05T11:43:52.579Z,47.40
2023-04-05T11:46:19.374Z,49.60
2023-04-05T11:48:45.978Z,49.50
2023-04-05T11:51:12.562Z,49.50
2023-04-05T11:53:39.105Z,50.10
2023-04-05T11:56:05.678Z,51.10
2023-04-05T11:58:32.310Z,50.70
2023-04-05T12:01:00.042Z,47.90
2023-04-05T12:03:26.705Z,50.10
2023-04-05T12:05:53.327Z,53.00
2023-04-05T12:08:20.135Z,50.40
2023-04-05T12:10:46.749Z,49.80
2023-04-05T12:13:13.449Z,49.80
2023-04-05T12:15:40.381Z,48.50
2023-04-05T12:18:07.383Z,48.70
2023-04-05T12:20:34.026Z,49.30
2023-04-05T12:23:00.624Z,48.50
2023-04-05T12:25:27.229Z,48.80
2023-04-05T12:27:54.022Z,46.80
2023-04-05T12:30:20.920Z,49.70
2023-04-05T12:32:47.709Z,49.10
2023-04-05T12:35:14.488Z,49.40
2023-04-05T12:37:41.145Z,50.10
2023-04-05T12:40:07.712Z,48.00
2023-04-05T12:42:34.335Z,49.20
2023-04-05T12:45:00.942Z,48.40
2023-04-05T12:47:27.581Z,48.50
2023-04-05T12:49:54.791Z,47.30
2023-04-05T12:52:21.342Z,48.10
2023-04-05T12:54:47.917Z,46.80
2023-04-05T12:57:14.467Z,46.90
2023-04-05T12:59:41.057Z,48.10
2023-04-05T13:02:07.679Z,50.20
2023-04-05T13:04:34.285Z,50.70
2023-04-05T13:07:00.855Z,51.30
2023-04-05T13:09:27.574Z,51.60
2023-04-05T13:11:54.129Z,49.10
2023-04-05T13:14:20.730Z,47.70
2023-04-05T13:16:47.279Z,48.00
2023-04-05T13:19:13.803Z,50.20
2023-04-05T13:21:40.422Z,49.20
2023-04-05T13:24:06.974Z,49.90
2023-04-05T13:26:34.026Z,50.20
2023-04-05T13:29:00.594Z,49.40
2023-04-05T13:31:27.324Z,50.90
2023-04-05T13:33:53.943Z,49.00
2023-04-05T13:36:20.519Z,50.00
2023-04-05T13:38:47.099Z,51.10
2023-04-05T13:41:13.715Z,48.20
2023-04-05T13:43:40.269Z,50.30
2023-04-05T13:46:06.918Z,49.70
2023-04-05T13:48:33.572Z,53.20
2023-04-05T13:51:00.167Z,51.10
2023-04-05T13:53:28.450Z,50.80
2023-04-05T13:55:55.356Z,52.70
2023-04-05T13:58:22.063Z,51.40
2023-04-05T14:00:48.638Z,51.60
2023-04-05T14:03:15.333Z,50.70
2023-04-05T14:05:41.962Z,52.40
2023-04-05T14:08:08.572Z,49.80
2023-04-05T14:10:35.133Z,49.50
2023-04-05T14:13:01.721Z,53.10
2023-04-05T14:15:28.543Z,51.90
2023-04-05T14:17:56.345Z,52.10
2023-04-05T14:20:22.917Z,49.20
2023-04-05T14:22:49.508Z,49.60
2023-04-05T14:25:16.154Z,50.70
2023-04-05T14:27:42.876Z,51.70
2023-04-05T14:30:09.497Z,51.00
2023-04-05T14:32:36.074Z,50.00
2023-04-05T14:35:02.626Z,50.20
2023-04-05T14:37:29.210Z,51.00
2023-04-05T14:39:55.817Z,49.20
2023-04-05T14:42:22.398Z,51.40
2023-04-05T14:44:48.967Z,51.30
2023-04-05T14:47:15.931Z,50.70
2023-04-05T14:49:42.488Z,51.10
2023-04-05T14:52:09.048Z,50.60
2023-04-05T14:54:35.600Z,51.60
2023-04-05T14:57:02.136Z,51.00
2023-04-05T14:59:28.797Z,50.80
2023-04-05T15:01:55.395Z,50.00
2023-04-05T15:04:21.940Z,49.60
2023-04-05T15:06:48.553Z,50.70
2023-04-05T15:09:15.127Z,48.40
2023-04-05T15:11:41.810Z,49.30
2023-04-05T15:14:15.373Z,50.00
2023-04-05T15:16:47.895Z,50.10
2023-04-05T15:19:14.574Z,48.60
2023-04-05T15:21:41.396Z,48.40
2023-04-05T15:24:07.999Z,49.70
2023-04-05T15:26:34.567Z,49.60
2023-04-05T15:29:01.122Z,50.90
2023-04-05T15:31:27.740Z,51.00
2023-04-05T15:33:54.313Z,50.60
2023-04-05T15:36:20.934Z,49.90
2023-04-05T15:38:47.601Z,50.60
2023-04-05T15:41:14.280Z,50.50
2023-04-05T15:43:40.858Z,52.50
2023-04-05T15:46:07.474Z,51.00
2023-04-05T15:48:34.014Z,52.70
2023-04-05T15:51:00.728Z,51.20
2023-04-05T15:53:27.313Z,51.00
2023-04-05T15:55:53.870Z,51.00
2023-04-05T15:58:20.408Z,52.10
2023-04-05T16:00:46.980Z,51.40
2023-04-05T16:03:14.497Z,51.70
2023-04-05T16:05:41.270Z,52.90
2023-04-05T16:08:07.830Z,51.20
2023-04-05T16:10:34.698Z,50.60
2023-04-05T16:13:01.278Z,52.70
2023-04-05T16:15:27.825Z,52.50
2023-04-05T16:17:54.412Z,51.80
2023-04-05T16:20:20.964Z,51.30
2023-04-05T16:22:47.546Z,50.30
2023-04-05T16:25:14.115Z,51.50
2023-04-05T16:27:40.665Z,52.10
2023-04-05T16:30:07.234Z,51.10
2023-04-05T16:32:33.879Z,52.10
2023-04-05T16:35:00.492Z,53.40
2023-04-05T16:37:27.135Z,51.60
2023-04-05T16:39:53.708Z,51.90
2023-04-05T16:42:20.343Z,53.10
2023-04-05T16:44:46.957Z,53.10
2023-04-05T16:47:13.865Z,52.50
2023-04-05T16:49:40.465Z,52.90
2023-04-05T16:52:07.065Z,52.60
2023-04-05T16:54:33.637Z,53.30
2023-04-05T16:57:00.217Z,53.50
2023-04-05T16:59:27.809Z,54.40
2023-04-05T17:01:54.400Z,53.50
2023-04-05T17:04:20.968Z,52.90
2023-04-05T17:06:47.539Z,52.90
2023-04-05T17:09:14.096Z,53.50
2023-04-05T17:11:40.649Z,53.80
2023-04-05T17:14:07.258Z,53.30
2023-04-05T17:16:33.798Z,53.90
2023-04-05T17:19:00.442Z,54.00
2023-04-05T17:21:27.070Z,53.80
2023-04-05T17:23:53.677Z,53.70
2023-04-05T17:26:20.217Z,53.70
2023-04-05T17:28:46.766Z,54.40
2023-04-05T17:31:13.400Z,55.10
2023-04-05T17:33:39.969Z,55.00
2023-04-05T17:36:06.626Z,55.60
2023-04-05T17:38:33.193Z,55.10
2023-04-05T17:40:59.747Z,54.40
2023-04-05T17:43:26.334Z,54.50
2023-04-05T17:45:52.857Z,54.40
2023-04-05T17:48:19.555Z,54.70
2023-04-05T17:50:46.189Z,54.20
2023-04-05T17:53:12.785Z,54.80
2023-04-05T17:55:39.378Z,53.90
2023-04-05T17:58:05.933Z,54.50
2023-04-05T18:00:32.468Z,53.60
2023-04-05T18:03:04.777Z,53.70
2023-04-05T18:05:34.362Z,53.30
2023-04-05T18:08:00.922Z,54.50
2023-04-05T18:10:27.495Z,54.40
2023-04-05T18:12:54.037Z,54.20
2023-04-05T18:15:20.972Z,54.20
2023-04-05T18:17:47.653Z,54.40
2023-04-05T18:20:14.272Z,54.30
2023-04-05T18:22:40.810Z,54.60
2023-04-05T18:25:07.368Z,54.20
2023-04-05T18:27:33.925Z,54.60
2023-04-05T18:30:00.491Z,55.30
2023-04-05T18:32:27.122Z,55.60
2023-04-05T18:34:53.774Z,55.60
2023-04-05T18:37:22.396Z,56.10
2023-04-05T18:39:48.941Z,56.10
2023-04-05T18:42:15.514Z,56.00
2023-04-05T18:44:42.066Z,56.10
2023-04-05T18:47:08.626Z,56.20
2023-04-05T18:49:35.258Z,56.50
2023-04-05T18:52:02.061Z,55.80
2023-04-05T18:54:28.623Z,55.90
2023-04-05T18:56:55.193Z,55.70
2023-04-05T18:59:21.789Z,55.60
2023-04-05T19:01:48.518Z,56.10
2023-04-05T19:04:15.133Z,56.10
2023-04-05T19:06:41.682Z,57.30
2023-04-05T19:09:08.704Z,56.90
2023-04-05T19:11:35.449Z,57.40
2023-04-05T19:14:02.020Z,57.20
2023-04-05T19:16:28.781Z,56.80
2023-04-05T19:18:55.718Z,56.90
2023-04-05T19:21:22.431Z,57.00
2023-04-05T19:23:49.061Z,58.00
2023-04-05T19:26:15.639Z,58.10
2023-04-05T19:28:42.201Z,58.00
2023-04-05T19:31:08.835Z,58.00
2023-04-05T19:33:35.435Z,58.50
2023-04-05T19:36:02.131Z,58.30
2023-04-05T19:38:29.006Z,57.80
2023-04-05T19:40:55.671Z,57.60
2023-04-05T19:43:22.212Z,58.40
2023-04-05T19:45:48.797Z,58.40
2023-04-05T19:48:15.339Z,58.60
2023-04-05T19:50:42.204Z,58.70
2023-04-05T19:53:08.862Z,58.60
2023-04-05T19:55:35.429Z,59.20
2023-04-05T19:58:02.019Z,59.10
2023-04-05T20:00:28.589Z,59.20
2023-04-05T20:02:55.210Z,59.30
2023-04-05T20:05:21.775Z,59.00
2023-04-05T20:07:48.364Z,59.40
2023-04-05T20:10:15.484Z,58.80
2023-04-05T20:12:42.050Z,59.00
2023-04-05T20:15:08.740Z,60.20
2023-04-05T20:17:35.343Z,61.20
2023-04-05T20:20:02.068Z,60.50
2023-04-05T20:22:28.670Z,59.90
2023-04-05T20:24:55.223Z,61.30
2023-04-05T20:27:21.792Z,61.20
2023-04-05T20:29:48.366Z,61.50
2023-04-05T20:32:15.125Z,62.20
2023-04-05T20:34:41.700Z,63.20
2023-04-05T20:37:08.274Z,63.20
2023-04-05T20:39:38.920Z,61.90
2023-04-05T20:42:05.505Z,61.80
2023-04-05T20:44:32.157Z,61.90
2023-04-05T20:46:59.725Z,62.00
2023-04-05T20:49:26.275Z,62.30
2023-04-05T20:51:52.877Z,62.20
2023-04-05T20:54:19.433Z,61.80
2023-04-05T20:56:46.024Z,61.60
2023-04-05T20:59:12.827Z,61.50
2023-04-05T21:01:39.481Z,62.40
2023-04-05T21:04:06.066Z,62.40
2023-04-05T21:06:32.752Z,62.90
2023-04-05T21:08:59.290Z,63.20
2023-04-05T21:11:26.093Z,63.40
2023-04-05T21:13:53.027Z,63.80
2023-04-05T21:16:19.621Z,63.40
2023-04-05T21:18:47.467Z,63.60
2023-04-05T21:21:14.036Z,63.70
2023-04-05T21:23:40.613Z,64.40
2023-04-05T21:26:07.402Z,65.10
2023-04-05T21:28:34.105Z,65.60
2023-04-05T21:31:00.709Z,65.00
2023-04-05T21:33:27.292Z,64.00
2023-04-05T21:35:53.856Z,64.60
2023-04-05T21:38:20.643Z,64.30
2023-04-05T21:40:47.330Z,65.50
2023-04-05T21:43:13.898Z,65.40
2023-04-05T21:45:40.459Z,65.10
2023-04-05T21:48:07.147Z,64.60
2023-04-05T21:50:33.727Z,64.30
2023-04-05T21:53:00.274Z,64.30
2023-04-05T21:55:26.897Z,64.30
2023-04-05T21:57:53.482Z,64.50
2023-04-05T22:00:20.065Z,64.30
2023-04-05T22:02:46.675Z,64.10
2023-04-05T22:05:17.592Z,65.00
2023-04-05T22:07:52.631Z,65.10
2023-04-05T22:10:19.380Z,64.90
2023-04-05T22:12:45.910Z,64.90
2023-04-05T22:15:12.483Z,65.00
2023-04-05T22:17:39.053Z,65.00
2023-04-05T22:20:05.627Z,65.60
2023-04-05T22:22:32.199Z,66.20
2023-04-05T22:24:58.781Z,66.00
2023-04-05T22:27:25.346Z,66.20
2023-04-05T22:29:51.902Z,65.90
2023-04-05T22:32:18.446Z,65.70
2023-04-05T22:34:45.009Z,65.80
2023-04-05T22:37:11.576Z,67.10
2023-04-05T22:39:38.138Z,67.30
2023-04-05T22:42:04.693Z,67.00
2023-04-05T22:44:31.242Z,67.10
2023-04-05T22:46:57.807Z,67.70
2023-04-05T22:49:24.397Z,66.70
2023-04-05T22:51:50.973Z,66.90
2023-04-05T22:54:18.063Z,66.50
2023-04-05T22:56:44.773Z,67.20
2023-04-05T22:59:11.568Z,67.20
2023-04-05T23:01:38.332Z,66.70
2023-04-05T23:04:04.984Z,66.70
2023-04-05T23:06:31.663Z,66.80
2023-04-05T23:08:58.281Z,66.20
2023-04-05T23:11:24.862Z,66.60
2023-04-05T23:13:51.477Z,66.30
2023-04-05T23:16:18.111Z,66.70
2023-04-05T23:18:44.723Z,66.30
2023-04-05T23:21:11.318Z,66.40
2023-04-05T23:23:37.913Z,66.60
2023-04-05T23:26:04.472Z,67.70
2023-04-05T23:28:31.042Z,68.30
2023-04-05T23:30:57.668Z,68.90
2023-04-05T23:33:24.302Z,68.90
2023-04-05T23:35:50.900Z,68.50
2023-04-05T23:38:17.541Z,69.10
2023-04-05T23:40:44.250Z,68.60
2023-04-05T23:43:10.809Z,68.70
2023-04-05T23:45:37.437Z,69.80
2023-04-05T23:48:04.123Z,69.20
2023-04-05T23:50:30.857Z,68.50
2023-04-05T23:52:57.413Z,68.30
2023-04-05T23:55:23.994Z,68.00
2023-04-05T23:57:50.525Z,68.60
